Time;durP1;ratioP1;P1;durP2;ratioP2;P2;SDS_P1;SDS_P2;PMS_P1;PMS_P2;Temp;Humidity;BMP_temperature;BMP_pressure;BME280_temperature;BME280_humidity;BME280_pressure;Samples;Min_cycle;Max_cycle;Signal;HPM_P1;HPM_P2
2021/10/01 00:01:39;;;;;;;0.52;0.40;;;13.10;92.80;;;;;;5113072;28;20483;-73
2021/10/01 00:04:05;;;;;;;0.65;0.55;;;13.10;92.80;;;;;;5113385;28;20473;-73
2021/10/01 00:06:30;;;;;;;0.75;0.60;;;13.10;92.80;;;;;;5113673;28;20016;-73
2021/10/01 00:08:56;;;;;;;0.40;0.40;;;13.00;92.80;;;;;;5095209;28;20024;-72
2021/10/01 00:11:21;;;;;;;0.40;0.40;;;13.00;92.80;;;;;;5113256;28;20043;-72
2021/10/01 00:13:47;;;;;;;0.63;0.47;;;13.00;92.80;;;;;;5113452;28;20393;-72
2021/10/01 00:16:13;;;;;;;0.63;0.63;;;13.00;93.10;;;;;;5113011;28;20016;-73
2021/10/01 00:18:39;;;;;;;0.60;0.60;;;12.90;92.80;;;;;;5113393;28;20023;-72
2021/10/01 00:21:05;;;;;;;0.40;0.40;;;12.90;92.80;;;;;;5113270;28;20016;-73
2021/10/01 00:23:31;;;;;;;0.52;0.47;;;12.90;92.80;;;;;;5113308;28;20035;-73
2021/10/01 00:25:57;;;;;;;1.30;0.50;;;12.90;92.80;;;;;;5117129;28;20015;-72
2021/10/01 00:28:22;;;;;;;0.30;0.30;;;12.90;92.70;;;;;;5099064;28;20027;-73
2021/10/01 00:30:48;;;;;;;0.40;0.40;;;13.00;92.70;;;;;;5116704;28;20597;-73
2021/10/01 00:33:13;;;;;;;0.85;0.50;;;13.00;92.70;;;;;;5117348;28;20510;-73
2021/10/01 00:35:39;;;;;;;0.30;0.30;;;13.00;92.60;;;;;;5116975;28;20106;-74
2021/10/01 00:38:04;;;;;;;0.30;0.30;;;13.00;92.60;;;;;;5117019;28;20020;-73
2021/10/01 00:40:30;;;;;;;0.77;0.57;;;13.10;92.60;;;;;;5117231;28;20019;-73
2021/10/01 00:42:55;;;;;;;0.52;0.52;;;13.10;92.50;;;;;;5116805;28;22002;-74
2021/10/01 00:45:21;;;;;;;0.55;0.55;;;13.10;92.50;;;;;;5116554;28;20424;-74
2021/10/01 00:47:46;;;;;;;0.55;0.45;;;13.20;92.50;;;;;;5116865;28;20020;-73
2021/10/01 00:50:12;;;;;;;0.30;0.30;;;13.10;92.50;;;;;;5116974;28;20050;-73
2021/10/01 00:52:38;;;;;;;0.43;0.43;;;13.10;92.50;;;;;;5116804;28;20016;-73
2021/10/01 00:55:04;;;;;;;3.95;1.42;;;13.10;92.50;;;;;;5116791;28;20480;-72
2021/10/01 00:57:29;;;;;;;1.73;0.60;;;13.20;92.50;;;;;;5098369;28;20028;-74
2021/10/01 00:59:55;;;;;;;0.40;0.40;;;13.20;92.50;;;;;;5116354;28;20031;-72
2021/10/01 01:02:21;;;;;;;0.60;0.60;;;13.20;92.50;;;;;;5116621;28;20555;-73
2021/10/01 01:04:47;;;;;;;0.40;0.40;;;13.20;92.50;;;;;;5116402;28;20042;-73
2021/10/01 01:07:35;;;;;;;0.85;0.80;;;13.20;92.50;;;;;;5116585;28;20024;-73
2021/10/01 01:10:15;;;;;;;1.02;0.55;;;13.20;92.40;;;;;;5116185;28;20040;-72
2021/10/01 01:13:09;;;;;;;0.38;0.28;;;13.20;92.40;;;;;;5116380;28;20050;-73
2021/10/01 01:15:41;;;;;;;0.60;0.32;;;13.30;92.40;;;;;;5115836;28;20412;-72
2021/10/01 01:18:12;;;;;;;0.68;0.55;;;13.20;92.40;;;;;;5098064;28;20093;-73
2021/10/01 01:20:51;;;;;;;0.38;0.38;;;13.20;92.50;;;;;;5116321;28;20020;-73
2021/10/01 01:23:34;;;;;;;0.40;0.35;;;13.20;92.40;;;;;;5116185;28;20031;-72
2021/10/01 01:26:25;;;;;;;1.38;0.90;;;13.20;92.50;;;;;;5116093;28;20054;-73
2021/10/01 01:29:10;;;;;;;0.40;0.40;;;13.20;92.40;;;;;;5115624;28;20058;-72
2021/10/01 01:31:51;;;;;;;0.40;0.40;;;13.20;92.40;;;;;;5097881;28;20024;-73
2021/10/01 01:34:21;;;;;;;3.85;0.73;;;13.10;92.40;;;;;;5097634;28;20472;-73
2021/10/01 01:36:54;;;;;;;1.02;0.43;;;13.10;92.50;;;;;;5096373;28;20536;-72
2021/10/01 01:39:20;;;;;;;0.30;0.30;;;13.10;92.50;;;;;;5116000;28;20012;-72
2021/10/01 01:41:47;;;;;;;0.45;0.30;;;13.00;92.50;;;;;;5097767;28;20414;-72
2021/10/01 01:44:13;;;;;;;1.15;0.43;;;13.00;92.50;;;;;;5115139;28;20030;-72
2021/10/01 01:46:41;;;;;;;0.35;0.30;;;13.00;92.50;;;;;;5097443;28;20535;-73
2021/10/01 01:49:09;;;;;;;0.25;0.25;;;13.00;92.50;;;;;;5115742;28;20024;-73
2021/10/01 01:51:36;;;;;;;3.60;0.43;;;13.00;92.50;;;;;;5115748;28;20019;-72
2021/10/01 01:54:02;;;;;;;0.30;0.30;;;13.00;92.40;;;;;;5115504;28;20503;-73
2021/10/01 01:56:32;;;;;;;0.70;0.40;;;13.00;92.40;;;;;;5097340;28;20019;-72
2021/10/01 01:59:00;;;;;;;0.40;0.40;;;13.00;92.30;;;;;;5096614;28;20020;-72
2021/10/01 02:01:27;;;;;;;0.38;0.38;;;13.10;92.40;;;;;;5115457;28;20020;-72
2021/10/01 02:03:54;;;;;;;0.63;0.63;;;13.10;92.30;;;;;;5115395;28;20023;-72
2021/10/01 02:06:21;;;;;;;0.47;0.47;;;13.10;92.30;;;;;;5115211;28;20020;-73
2021/10/01 02:08:48;;;;;;;0.22;0.17;;;13.10;92.30;;;;;;5115369;28;20103;-72
2021/10/01 02:11:15;;;;;;;0.38;0.38;;;13.10;92.30;;;;;;5114946;28;20054;-73
2021/10/01 02:13:42;;;;;;;0.82;0.30;;;13.10;92.20;;;;;;5115237;28;20038;-73
2021/10/01 02:16:09;;;;;;;0.50;0.50;;;13.10;92.20;;;;;;5115041;28;20019;-73
2021/10/01 02:18:37;;;;;;;0.35;0.35;;;13.20;92.20;;;;;;5096848;28;20464;-73
2021/10/01 02:21:04;;;;;;;1.30;0.40;;;13.20;92.20;;;;;;5115329;28;20016;-72
2021/10/01 02:23:30;;;;;;;1.17;0.50;;;13.20;92.20;;;;;;5114842;28;20027;-73
2021/10/01 02:28:47;;;;;;;0.60;0.60;;;13.20;92.20;;;;;;5115204;28;20388;-72
2021/10/01 02:31:39;;;;;;;0.20;0.20;;;13.20;92.20;;;;;;5114873;28;20093;-73
2021/10/01 02:34:07;;;;;;;0.85;0.32;;;13.20;92.10;;;;;;5114856;28;20023;-73
2021/10/01 02:36:33;;;;;;;0.30;0.20;;;13.20;92.20;;;;;;5096260;28;20028;-73
2021/10/01 02:38:58;;;;;;;0.32;0.32;;;13.30;92.20;;;;;;5114678;28;20019;-73
2021/10/01 02:41:24;;;;;;;0.30;0.30;;;13.30;92.10;;;;;;5114234;28;20020;-72
2021/10/01 02:43:49;;;;;;;0.52;0.30;;;13.30;92.10;;;;;;5114612;28;20040;-72
2021/10/01 02:46:15;;;;;;;0.30;0.30;;;13.30;92.20;;;;;;5114578;28;20065;-72
2021/10/01 02:48:40;;;;;;;0.32;0.30;;;13.30;92.10;;;;;;5114077;28;20031;-72
2021/10/01 02:51:13;;;;;;;1.13;0.43;;;13.30;92.10;;;;;;5114415;28;20076;-73
2021/10/01 02:53:57;;;;;;;0.10;0.10;;;13.30;92.10;;;;;;5114661;28;20099;-73
2021/10/01 02:56:31;;;;;;;0.40;0.30;;;13.30;92.10;;;;;;5113753;28;20110;-73
2021/10/01 02:59:01;;;;;;;0.28;0.25;;;13.30;92.10;;;;;;5114421;28;20016;-73
2021/10/01 03:01:29;;;;;;;0.35;0.32;;;13.30;92.10;;;;;;5114289;28;20058;-73
2021/10/01 03:04:01;;;;;;;0.50;0.47;;;13.30;92.10;;;;;;5114206;28;20110;-73
2021/10/01 03:06:30;;;;;;;0.40;0.30;;;13.30;92.00;;;;;;5114352;28;20045;-72
2021/10/01 03:08:56;;;;;;;0.43;0.30;;;13.30;92.00;;;;;;5114054;28;20524;-72
2021/10/01 03:11:28;;;;;;;0.20;0.20;;;13.40;92.00;;;;;;5113500;28;20077;-74
2021/10/01 03:13:54;;;;;;;0.10;0.10;;;13.40;92.00;;;;;;5114127;28;20020;-74
2021/10/01 03:16:21;;;;;;;0.30;0.30;;;13.40;92.00;;;;;;5113905;28;20023;-73
2021/10/01 03:18:49;;;;;;;0.30;0.30;;;13.40;92.00;;;;;;5114182;28;20022;-73
2021/10/01 03:21:16;;;;;;;0.35;0.30;;;13.40;92.00;;;;;;5114062;28;20047;-73
2021/10/01 03:23:44;;;;;;;0.40;0.40;;;13.40;92.00;;;;;;5113783;28;20027;-73
2021/10/01 03:26:11;;;;;;;0.28;0.28;;;13.40;92.00;;;;;;5113483;28;20383;-72
2021/10/01 03:28:37;;;;;;;0.52;0.52;;;13.40;92.00;;;;;;5113885;28;20023;-72
2021/10/01 03:31:03;;;;;;;0.30;0.30;;;13.40;92.00;;;;;;5113893;28;20024;-72
2021/10/01 03:33:29;;;;;;;0.20;0.20;;;13.40;92.00;;;;;;5113897;28;20019;-73
2021/10/01 03:35:55;;;;;;;0.20;0.20;;;13.30;92.00;;;;;;5095573;28;20421;-72
2021/10/01 03:38:23;;;;;;;0.20;0.20;;;13.30;92.00;;;;;;5095221;28;20026;-74
2021/10/01 03:40:49;;;;;;;0.30;0.30;;;13.30;92.00;;;;;;5095695;28;20054;-72
2021/10/01 03:43:16;;;;;;;0.52;0.52;;;13.30;92.00;;;;;;5113599;28;20547;-73
2021/10/01 03:45:42;;;;;;;0.30;0.30;;;13.40;92.00;;;;;;5113827;28;20034;-72
2021/10/01 03:48:08;;;;;;;0.10;0.10;;;13.40;91.90;;;;;;5113713;28;20484;-73
2021/10/01 03:50:35;;;;;;;0.40;0.40;;;13.40;91.90;;;;;;5095366;28;20028;-73
2021/10/01 03:53:01;;;;;;;0.30;0.30;;;13.50;91.90;;;;;;5094906;28;20375;-73
2021/10/01 03:55:27;;;;;;;0.90;0.47;;;13.50;91.90;;;;;;5113687;28;20024;-72
2021/10/01 03:57:53;;;;;;;2.92;0.55;;;13.50;91.90;;;;;;5095261;28;20539;-73
2021/10/01 04:00:19;;;;;;;0.30;0.30;;;13.50;91.80;;;;;;5116639;28;20149;-72
2021/10/01 04:02:45;;;;;;;0.43;0.40;;;13.50;91.80;;;;;;5117569;28;20095;-72
2021/10/01 04:05:11;;;;;;;1.00;0.63;;;13.50;91.80;;;;;;5117640;28;20118;-72
2021/10/01 04:07:37;;;;;;;0.45;0.30;;;13.50;91.80;;;;;;5117393;28;20022;-72
2021/10/01 04:10:04;;;;;;;0.40;0.40;;;13.50;91.90;;;;;;5117500;28;20019;-73
2021/10/01 04:12:30;;;;;;;1.60;0.50;;;13.50;91.90;;;;;;5117627;28;20108;-73
2021/10/01 04:14:55;;;;;;;0.52;0.50;;;13.40;91.90;;;;;;5117513;28;20061;-73
2021/10/01 04:17:21;;;;;;;0.50;0.20;;;13.40;91.90;;;;;;5117454;28;20532;-72
2021/10/01 04:19:46;;;;;;;0.30;0.30;;;13.40;91.90;;;;;;5099108;28;20020;-72
2021/10/01 04:22:12;;;;;;;0.30;0.30;;;13.40;91.90;;;;;;5117066;28;20028;-73
2021/10/01 04:24:37;;;;;;;0.43;0.43;;;13.40;91.80;;;;;;5117221;28;20042;-73
2021/10/01 04:27:03;;;;;;;0.57;0.32;;;13.40;91.80;;;;;;5117071;28;20511;-72
2021/10/01 04:29:29;;;;;;;1.60;0.43;;;13.40;91.80;;;;;;5117923;28;20027;-74
2021/10/01 04:31:54;;;;;;;0.40;0.40;;;13.30;91.70;;;;;;5098967;28;20069;-72
2021/10/01 04:34:21;;;;;;;0.57;0.57;;;13.30;91.80;;;;;;5117159;28;20030;-72
2021/10/01 04:36:47;;;;;;;1.00;0.30;;;13.20;91.70;;;;;;5116654;28;20019;-73
2021/10/01 04:39:13;;;;;;;0.32;0.32;;;13.20;91.80;;;;;;5117088;28;20027;-72
2021/10/01 04:41:41;;;;;;;0.40;0.40;;;13.10;91.80;;;;;;5117050;28;20401;-72
2021/10/01 04:44:07;;;;;;;1.48;0.50;;;13.00;91.80;;;;;;5116876;28;20038;-73
2021/10/01 04:46:33;;;;;;;0.30;0.30;;;13.00;91.90;;;;;;5116838;28;20045;-73
2021/10/01 04:48:58;;;;;;;0.60;0.60;;;12.90;91.90;;;;;;5116950;28;20027;-75
2021/10/01 04:51:24;;;;;;;0.45;0.30;;;12.80;91.80;;;;;;5116434;28;20024;-73
2021/10/01 04:53:50;;;;;;;0.25;0.25;;;12.80;91.90;;;;;;5098601;28;20517;-73
2021/10/01 04:56:15;;;;;;;0.60;0.60;;;12.80;91.90;;;;;;5116618;28;20027;-73
2021/10/01 04:58:41;;;;;;;0.22;0.22;;;12.80;92.10;;;;;;5116674;28;20152;-73
2021/10/01 05:01:06;;;;;;;0.50;0.50;;;12.70;91.80;;;;;;5116805;28;20027;-73
2021/10/01 05:03:32;;;;;;;0.43;0.30;;;12.70;91.80;;;;;;5116637;28;20047;-71
2021/10/01 05:05:57;;;;;;;0.82;0.35;;;12.70;91.90;;;;;;5116029;28;20023;-72
2021/10/01 05:08:23;;;;;;;1.33;0.32;;;12.70;91.80;;;;;;5116488;28;20035;-73
2021/10/01 05:10:48;;;;;;;0.30;0.30;;;12.70;91.80;;;;;;5116037;28;20040;-73
2021/10/01 05:13:14;;;;;;;0.40;0.40;;;12.70;91.80;;;;;;5116268;28;20073;-73
2021/10/01 05:15:42;;;;;;;0.40;0.32;;;12.70;91.80;;;;;;5116295;28;20360;-73
2021/10/01 05:18:08;;;;;;;1.33;0.60;;;12.70;91.80;;;;;;5116408;28;20020;-71
2021/10/01 05:20:36;;;;;;;0.40;0.40;;;12.70;91.70;;;;;;5115894;28;20490;-72
2021/10/01 05:23:02;;;;;;;0.30;0.20;;;12.60;91.70;;;;;;5116229;28;20024;-73
2021/10/01 05:25:27;;;;;;;0.32;0.32;;;12.60;91.70;;;;;;5116122;28;20053;-72
2021/10/01 05:27:54;;;;;;;0.55;0.40;;;12.60;91.70;;;;;;5115978;28;20026;-73
2021/10/01 05:30:20;;;;;;;0.40;0.40;;;12.60;91.70;;;;;;5116084;28;20077;-72
2021/10/01 05:32:45;;;;;;;0.30;0.30;;;12.60;91.70;;;;;;5097673;28;20016;-72
2021/10/01 05:35:11;;;;;;;0.60;0.30;;;12.60;91.70;;;;;;5115498;28;20027;-72
2021/10/01 05:37:37;;;;;;;0.35;0.35;;;12.70;91.70;;;;;;5115946;28;20028;-72
2021/10/01 05:40:04;;;;;;;0.55;0.50;;;12.60;91.70;;;;;;5115751;28;20016;-72
2021/10/01 05:42:30;;;;;;;0.10;0.10;;;12.60;91.70;;;;;;5115711;28;20027;-73
2021/10/01 05:44:55;;;;;;;0.30;0.30;;;12.60;91.60;;;;;;5115690;28;20039;-73
2021/10/01 05:47:21;;;;;;;0.30;0.30;;;12.60;91.70;;;;;;5115666;28;20024;-73
2021/10/01 05:49:47;;;;;;;0.50;0.50;;;12.60;91.70;;;;;;5115196;28;20104;-73
2021/10/01 05:54:41;;;;;;;1.20;0.50;;;12.60;91.60;;;;;;5115863;28;20511;-73
2021/10/01 05:57:09;;;;;;;0.38;0.38;;;12.60;91.60;;;;;;5115354;28;20365;-73
2021/10/01 05:59:36;;;;;;;0.17;0.17;;;12.70;91.60;;;;;;5115523;28;20520;-73
2021/10/01 06:02:02;;;;;;;0.30;0.30;;;12.70;91.60;;;;;;5097165;28;20023;-73
2021/10/01 06:04:28;;;;;;;0.55;0.55;;;12.70;91.60;;;;;;5114906;28;20035;-75
2021/10/01 06:06:53;;;;;;;0.50;0.50;;;12.70;91.60;;;;;;5115299;28;20015;-73
2021/10/01 06:09:19;;;;;;;0.57;0.40;;;12.60;91.50;;;;;;5115164;28;20023;-73
2021/10/01 06:11:46;;;;;;;0.50;0.50;;;12.60;91.50;;;;;;5115096;28;20373;-73
2021/10/01 06:14:11;;;;;;;0.30;0.30;;;12.70;91.50;;;;;;5115214;28;20023;-73
2021/10/01 06:16:37;;;;;;;0.30;0.30;;;12.70;91.50;;;;;;5115260;28;20068;-73
2021/10/01 06:19:03;;;;;;;0.40;0.40;;;12.80;91.40;;;;;;5114609;28;20103;-73
2021/10/01 06:21:29;;;;;;;0.43;0.40;;;12.80;91.40;;;;;;5114619;28;20403;-74
2021/10/01 06:23:55;;;;;;;0.52;0.50;;;12.80;91.40;;;;;;5114860;28;20093;-73
2021/10/01 06:26:21;;;;;;;0.90;0.40;;;12.90;91.40;;;;;;5114965;28;20055;-73
2021/10/01 06:28:46;;;;;;;0.32;0.32;;;12.90;91.40;;;;;;5114917;28;20027;-74
2021/10/01 06:31:12;;;;;;;0.25;0.20;;;13.00;91.30;;;;;;5114629;28;20023;-74
2021/10/01 06:33:38;;;;;;;3.35;1.15;;;13.00;91.30;;;;;;5114287;28;20103;-74
2021/10/01 06:36:04;;;;;;;0.20;0.20;;;13.00;91.20;;;;;;5114765;28;20026;-72
2021/10/01 06:38:31;;;;;;;0.85;0.70;;;13.00;91.20;;;;;;5114805;28;20024;-74
2021/10/01 06:40:58;;;;;;;0.50;0.50;;;13.00;91.30;;;;;;5114708;28;20020;-74
2021/10/01 06:43:24;;;;;;;2.10;0.52;;;13.00;91.30;;;;;;5114385;28;20110;-73
2021/10/01 06:45:53;;;;;;;0.38;0.38;;;13.00;91.20;;;;;;5096377;28;20055;-73
2021/10/01 07:34:57;;;;;;;1.23;0.30;;;13.70;91.00;;;;;;5113494;28;20149;-73
2021/10/01 08:18:27;;;;;;;0.57;0.22;;;14.40;90.70;;;;;;5113485;28;20498;-72
2021/10/01 08:20:53;;;;;;;0.40;0.40;;;14.50;90.60;;;;;;5113394;28;20023;-73
2021/10/01 08:23:18;;;;;;;0.63;0.30;;;14.50;90.50;;;;;;5113092;28;20047;-73
2021/10/01 08:25:44;;;;;;;0.38;0.38;;;14.60;90.40;;;;;;5113345;28;20032;-72
2021/10/01 08:28:10;;;;;;;0.43;0.30;;;14.60;90.50;;;;;;5113173;28;20085;-73
2021/10/01 08:30:37;;;;;;;0.75;0.60;;;14.70;90.50;;;;;;5112664;28;20023;-74
2021/10/01 08:33:03;;;;;;;0.40;0.40;;;14.70;90.40;;;;;;5113231;28;20024;-74
2021/10/01 08:35:28;;;;;;;0.40;0.40;;;14.80;90.50;;;;;;5113109;28;20028;-73
2021/10/01 08:37:57;;;;;;;0.43;0.40;;;14.80;90.40;;;;;;5113104;28;20459;-73
2021/10/01 08:40:23;;;;;;;0.20;0.20;;;14.80;90.40;;;;;;5113081;28;20059;-73
2021/10/01 08:42:51;;;;;;;0.30;0.22;;;14.70;90.50;;;;;;5094564;28;20470;-74
2021/10/01 08:45:18;;;;;;;0.85;0.75;;;14.70;90.60;;;;;;5114058;28;20396;-73
2021/10/01 08:47:44;;;;;;;0.73;0.45;;;14.50;90.60;;;;;;5116864;28;20016;-73
2021/10/01 08:50:13;;;;;;;0.32;0.32;;;14.40;90.80;;;;;;5116832;28;20106;-73
2021/10/01 08:52:38;;;;;;;0.30;0.30;;;14.40;90.90;;;;;;5116703;28;20038;-74
2021/10/01 08:55:06;;;;;;;0.68;0.65;;;14.40;90.90;;;;;;5116704;28;20472;-73
2021/10/01 08:57:32;;;;;;;0.40;0.40;;;14.40;90.90;;;;;;5116164;28;20051;-75
2021/10/01 08:59:59;;;;;;;0.35;0.35;;;14.50;90.90;;;;;;5116566;28;20076;-74
2021/10/01 09:02:24;;;;;;;1.02;0.50;;;14.60;90.70;;;;;;5098424;28;20016;-73
2021/10/01 09:04:55;;;;;;;0.60;0.60;;;14.60;90.70;;;;;;5116461;28;20494;-73
2021/10/01 09:07:23;;;;;;;0.40;0.40;;;14.60;90.70;;;;;;5116580;28;20020;-73
2021/10/01 09:09:53;;;;;;;0.75;0.47;;;14.70;90.70;;;;;;5116497;28;20019;-74
2021/10/01 09:12:20;;;;;;;0.13;0.13;;;14.70;90.70;;;;;;5115686;28;20111;-73
2021/10/01 09:14:54;;;;;;;1.17;0.38;;;14.70;90.70;;;;;;5116390;28;20494;-75
2021/10/01 09:17:32;;;;;;;0.30;0.30;;;14.70;90.70;;;;;;5098166;28;20388;-74
2021/10/01 09:20:00;;;;;;;0.22;0.22;;;14.80;90.70;;;;;;5098091;28;20058;-73
2021/10/01 09:22:29;;;;;;;0.82;0.65;;;14.90;90.70;;;;;;5116230;28;20016;-73
2021/10/01 09:25:12;;;;;;;0.88;0.68;;;14.90;90.70;;;;;;5116046;28;20039;-73
2021/10/01 09:27:40;;;;;;;0.40;0.40;;;14.90;90.60;;;;;;5115734;28;20341;-73
2021/10/01 09:30:09;;;;;;;0.77;0.50;;;14.90;90.60;;;;;;5116364;28;20020;-73
2021/10/01 09:32:34;;;;;;;0.45;0.30;;;14.90;90.60;;;;;;5116112;28;20028;-73
2021/10/01 09:35:13;;;;;;;0.30;0.30;;;14.80;90.70;;;;;;5115916;28;20049;-74
2021/10/01 09:37:40;;;;;;;0.57;0.43;;;14.60;90.90;;;;;;5115829;28;20028;-73
2021/10/01 09:40:07;;;;;;;0.70;0.65;;;14.30;91.30;;;;;;5115855;28;20019;-74
2021/10/01 09:42:40;;;;;;;0.65;0.43;;;14.30;91.40;;;;;;5115516;28;20019;-74
2021/10/01 09:45:08;;;;;;;0.40;0.40;;;14.30;91.70;;;;;;5115444;28;20376;-74
2021/10/01 09:47:48;;;;;;;0.70;0.57;;;14.20;91.50;;;;;;5115664;28;20026;-73
2021/10/01 09:50:31;;;;;;;0.38;0.38;;;14.20;91.50;;;;;;5115687;28;20034;-74
2021/10/01 09:53:02;;;;;;;0.75;0.40;;;14.20;91.50;;;;;;5115727;28;20012;-74
2021/10/01 09:55:36;;;;;;;0.40;0.40;;;14.30;91.50;;;;;;5115311;28;20024;-74
2021/10/01 09:58:06;;;;;;;0.70;0.40;;;14.30;91.40;;;;;;5114424;28;20049;-74
2021/10/01 10:00:47;;;;;;;0.63;0.32;;;14.40;91.40;;;;;;5115113;28;20015;-74
2021/10/01 10:03:14;;;;;;;0.35;0.35;;;14.40;91.40;;;;;;5115337;28;20032;-75
2021/10/01 10:06:10;;;;;;;0.40;0.40;;;14.40;91.40;;;;;;5115505;28;20027;-74
2021/10/01 10:08:41;;;;;;;0.45;0.43;;;14.40;91.40;;;;;;5115207;28;20027;-74
2021/10/01 10:11:10;;;;;;;0.30;0.30;;;14.40;91.40;;;;;;5114632;28;20131;-73
2021/10/01 10:13:36;;;;;;;0.22;0.22;;;14.30;91.50;;;;;;5115161;28;20475;-73
2021/10/01 10:16:16;;;;;;;0.47;0.47;;;14.40;91.50;;;;;;5115205;28;20034;-73
2021/10/01 10:18:43;;;;;;;0.70;0.38;;;14.50;91.50;;;;;;5115235;28;20028;-74
2021/10/01 10:21:09;;;;;;;0.40;0.40;;;14.60;91.50;;;;;;5114955;28;20027;-72
2021/10/01 10:23:34;;;;;;;0.30;0.30;;;14.60;91.40;;;;;;5114819;28;20081;-72
2021/10/01 10:26:00;;;;;;;0.95;0.40;;;14.70;91.40;;;;;;5114551;28;20016;-73
2021/10/01 10:28:27;;;;;;;0.52;0.50;;;14.90;91.40;;;;;;5114902;28;20026;-72
2021/10/01 10:30:53;;;;;;;0.43;0.43;;;15.00;91.30;;;;;;5114956;28;20030;-74
2021/10/01 10:33:43;;;;;;;0.30;0.30;;;15.20;91.30;;;;;;5114807;28;20076;-74
2021/10/01 10:36:56;;;;;;;0.35;0.35;;;15.40;91.20;;;;;;5114756;28;20031;-73
2021/10/01 10:39:36;;;;;;;0.15;0.10;;;15.60;91.10;;;;;;5096146;28;20445;-74
2021/10/01 10:42:12;;;;;;;0.28;0.28;;;15.80;91.20;;;;;;5114717;28;20046;-74
2021/10/01 10:44:44;;;;;;;0.80;0.40;;;15.90;91.00;;;;;;5114486;28;20119;-74
2021/10/01 10:47:31;;;;;;;1.67;1.05;;;15.80;91.00;;;;;;5114630;28;20028;-74
2021/10/01 10:50:25;;;;;;;0.98;0.65;;;15.80;91.20;;;;;;5114248;28;20028;-73
2021/10/01 10:53:25;;;;;;;0.60;0.50;;;15.70;91.20;;;;;;5114142;28;20102;-74
2021/10/01 10:56:06;;;;;;;0.30;0.30;;;15.70;91.30;;;;;;5070680;28;20089;-73
2021/10/01 10:58:32;;;;;;;2.80;0.40;;;15.70;91.30;;;;;;5114303;28;20066;-73
2021/10/01 11:01:21;;;;;;;0.47;0.28;;;15.80;91.30;;;;;;5114214;28;20023;-73
2021/10/01 11:03:51;;;;;;;0.20;0.20;;;16.00;91.20;;;;;;5114315;28;20038;-74
2021/10/01 11:06:18;;;;;;;0.30;0.28;;;16.00;91.10;;;;;;5114269;28;20015;-73
2021/10/01 11:09:27;;;;;;;0.40;0.40;;;16.20;91.00;;;;;;5113437;28;20430;-72
2021/10/01 11:11:57;;;;;;;0.60;0.40;;;16.30;90.90;;;;;;5095189;28;20044;-72
2021/10/01 11:14:25;;;;;;;0.50;0.50;;;16.30;90.80;;;;;;5114223;28;20073;-74
2021/10/01 11:16:54;;;;;;;0.40;0.30;;;16.30;90.80;;;;;;5114069;28;20049;-73
2021/10/01 11:19:45;;;;;;;0.40;0.40;;;16.40;90.80;;;;;;5095710;28;20031;-73
2021/10/01 11:22:32;;;;;;;0.30;0.30;;;16.40;90.80;;;;;;5095798;28;20028;-73
2021/10/01 11:25:04;;;;;;;0.25;0.22;;;16.40;90.60;;;;;;5113953;28;20032;-73
2021/10/01 11:27:30;;;;;;;0.68;0.52;;;16.50;90.60;;;;;;5113934;28;20030;-74
2021/10/01 11:29:56;;;;;;;0.30;0.30;;;16.50;90.60;;;;;;5113658;28;20028;-73
2021/10/01 11:32:24;;;;;;;0.32;0.30;;;16.50;90.50;;;;;;5113964;28;20015;-74
2021/10/01 11:35:00;;;;;;;0.22;0.17;;;16.50;90.50;;;;;;5095614;28;20038;-73
2021/10/01 11:37:33;;;;;;;0.28;0.28;;;16.60;90.50;;;;;;5094912;28;20438;-74
2021/10/01 11:40:22;;;;;;;0.55;0.43;;;16.60;90.40;;;;;;5113621;28;20118;-73
2021/10/01 11:42:50;;;;;;;0.40;0.40;;;16.70;90.40;;;;;;5113855;28;20092;-73
2021/10/01 11:45:22;;;;;;;0.47;0.30;;;16.70;90.40;;;;;;5095512;28;20584;-74
2021/10/01 11:48:02;;;;;;;0.38;0.38;;;16.70;90.40;;;;;;5095321;28;20464;-74
2021/10/01 11:50:32;;;;;;;0.52;0.50;;;16.60;90.40;;;;;;5113757;28;20470;-74
2021/10/01 11:52:59;;;;;;;0.40;0.40;;;16.50;90.40;;;;;;5113119;28;20028;-74
2021/10/01 11:55:30;;;;;;;0.40;0.40;;;16.50;90.50;;;;;;5095481;28;20329;-73
2021/10/01 11:57:56;;;;;;;0.52;0.40;;;16.60;90.50;;;;;;5095191;28;20019;-74
2021/10/01 12:00:23;;;;;;;0.30;0.30;;;16.70;90.30;;;;;;5113734;28;20024;-72
2021/10/01 12:02:51;;;;;;;0.50;0.40;;;16.70;90.30;;;;;;5113465;28;20027;-73
2021/10/01 12:05:34;;;;;;;2.33;0.60;;;16.80;90.20;;;;;;5113282;28;20046;-73
2021/10/01 12:08:08;;;;;;;0.30;0.30;;;16.80;90.20;;;;;;5113024;28;20434;-73
2021/10/01 12:10:48;;;;;;;0.20;0.20;;;16.80;90.20;;;;;;5113310;28;20484;-72
2021/10/01 12:13:26;;;;;;;0.40;0.28;;;16.90;90.20;;;;;;5095009;28;20426;-74
2021/10/01 12:16:01;;;;;;;0.30;0.30;;;16.90;90.10;;;;;;5113385;28;20055;-73
2021/10/01 12:18:31;;;;;;;0.30;0.30;;;17.00;90.00;;;;;;5113393;28;20030;-74
2021/10/01 12:21:00;;;;;;;0.88;0.32;;;17.00;90.00;;;;;;5115068;28;20028;-73
2021/10/01 12:23:31;;;;;;;0.20;0.20;;;17.10;90.00;;;;;;5095565;28;20020;-72
2021/10/01 12:26:19;;;;;;;0.22;0.22;;;17.20;89.90;;;;;;5114493;28;20031;-73
2021/10/01 12:29:20;;;;;;;0.30;0.30;;;17.30;89.80;;;;;;5114381;28;20525;-73
2021/10/01 12:32:03;;;;;;;0.25;0.25;;;17.30;89.70;;;;;;5114579;28;20031;-73
2021/10/01 12:34:47;;;;;;;1.02;0.60;;;17.30;90.00;;;;;;5095797;28;20397;-74
2021/10/01 12:37:17;;;;;;;1.30;0.45;;;17.40;89.50;;;;;;5114371;28;20035;-74
2021/10/01 12:39:44;;;;;;;0.20;0.20;;;17.30;89.70;;;;;;5114054;28;20115;-74
2021/10/01 12:42:12;;;;;;;0.30;0.30;;;17.30;89.70;;;;;;5114164;28;20027;-74
2021/10/01 12:44:40;;;;;;;0.30;0.28;;;17.30;89.80;;;;;;5113951;28;20559;-73
2021/10/01 12:47:18;;;;;;;0.20;0.20;;;17.30;89.80;;;;;;5111613;28;20015;-74
2021/10/01 12:50:00;;;;;;;0.30;0.28;;;17.40;89.70;;;;;;5113611;28;20020;-74
2021/10/01 12:52:27;;;;;;;0.40;0.32;;;17.40;89.60;;;;;;5096948;28;20023;-74
2021/10/01 12:55:01;;;;;;;0.30;0.30;;;17.40;89.50;;;;;;5116771;28;20035;-74
2021/10/01 12:57:29;;;;;;;0.30;0.30;;;17.40;89.30;;;;;;5116576;28;20384;-76
2021/10/01 13:00:01;;;;;;;0.22;0.22;;;17.50;89.10;;;;;;5098448;28;20030;-75
2021/10/01 13:02:51;;;;;;;0.20;0.20;;;17.60;89.10;;;;;;5116679;28;20031;-76
2021/10/01 13:05:22;;;;;;;0.25;0.20;;;17.70;88.90;;;;;;5116108;28;20392;-75
2021/10/01 13:07:49;;;;;;;0.52;0.20;;;17.70;88.90;;;;;;5116533;28;20027;-76
2021/10/01 13:10:15;;;;;;;0.20;0.20;;;17.70;88.70;;;;;;5116252;28;20122;-75
2021/10/01 13:13:03;;;;;;;0.60;0.20;;;17.70;88.70;;;;;;5116579;28;20149;-74
2021/10/01 13:15:50;;;;;;;0.30;0.30;;;17.70;88.60;;;;;;5116418;28;20371;-75
2021/10/01 13:18:19;;;;;;;0.47;0.20;;;17.60;88.60;;;;;;5115963;28;20054;-77
2021/10/01 13:20:57;;;;;;;0.47;0.25;;;17.60;88.80;;;;;;5116264;28;20027;-75
2021/10/01 13:23:28;;;;;;;0.20;0.20;;;17.50;88.50;;;;;;5097889;28;20023;-74
2021/10/01 13:25:55;;;;;;;0.43;0.40;;;17.50;88.70;;;;;;5116123;28;20035;-74
2021/10/01 13:28:23;;;;;;;0.10;0.10;;;17.50;88.80;;;;;;5116117;28;20104;-73
2021/10/01 13:30:50;;;;;;;0.82;0.40;;;17.50;88.70;;;;;;5116050;28;20058;-74
2021/10/01 13:33:17;;;;;;;0.22;0.10;;;17.50;88.70;;;;;;5097370;28;20061;-75
2021/10/01 13:35:43;;;;;;;0.30;0.28;;;17.50;88.60;;;;;;5116049;28;20466;-75
2021/10/01 13:38:10;;;;;;;0.90;0.57;;;17.40;88.50;;;;;;5115997;28;20030;-74
2021/10/01 13:40:37;;;;;;;0.47;0.47;;;17.40;88.60;;;;;;5097608;28;20020;-75
2021/10/01 13:43:03;;;;;;;0.28;0.28;;;17.40;89.00;;;;;;5115793;28;20016;-74
2021/10/01 13:45:29;;;;;;;0.57;0.35;;;17.30;88.40;;;;;;5097534;28;20506;-75
2021/10/01 13:47:56;;;;;;;0.20;0.20;;;17.30;88.40;;;;;;5115456;28;20069;-75
2021/10/01 13:50:22;;;;;;;0.20;0.20;;;17.40;88.40;;;;;;5115642;28;20446;-74
2021/10/01 13:52:49;;;;;;;0.10;0.10;;;17.40;88.30;;;;;;5115642;28;20059;-76
2021/10/01 13:55:16;;;;;;;0.50;0.30;;;17.50;88.10;;;;;;5097418;28;20053;-77
2021/10/01 13:57:41;;;;;;;0.68;0.50;;;17.60;87.90;;;;;;5115514;28;20015;-74
2021/10/01 14:00:10;;;;;;;0.28;0.28;;;17.70;87.70;;;;;;5115326;28;20349;-73
2021/10/01 14:02:37;;;;;;;0.98;0.20;;;17.70;87.50;;;;;;5096472;28;20020;-76
2021/10/01 14:05:05;;;;;;;0.28;0.20;;;17.70;87.50;;;;;;5097034;28;20098;-74
2021/10/01 14:07:31;;;;;;;0.40;0.30;;;17.70;87.60;;;;;;5115508;28;20015;-74
2021/10/01 14:09:59;;;;;;;0.30;0.30;;;17.70;87.40;;;;;;5115375;28;20115;-74
2021/10/01 14:12:30;;;;;;;0.10;0.10;;;17.70;87.40;;;;;;5115169;28;20491;-74
2021/10/01 14:14:56;;;;;;;0.20;0.20;;;17.60;87.40;;;;;;5115395;28;20027;-74
2021/10/01 14:17:22;;;;;;;0.25;0.25;;;17.60;87.50;;;;;;5114807;28;20016;-73
2021/10/01 14:19:48;;;;;;;0.55;0.40;;;17.50;87.70;;;;;;5115009;28;20027;-72
2021/10/01 14:22:13;;;;;;;0.28;0.28;;;17.50;87.90;;;;;;5115125;28;20016;-73
2021/10/01 14:24:39;;;;;;;0.47;0.47;;;17.40;87.90;;;;;;5114997;28;20032;-74
2021/10/01 14:27:05;;;;;;;0.30;0.30;;;17.40;87.90;;;;;;5114657;28;20079;-74
2021/10/01 14:29:31;;;;;;;0.17;0.17;;;17.40;87.90;;;;;;5114986;28;20046;-74
2021/10/01 14:31:57;;;;;;;0.15;0.15;;;17.40;88.50;;;;;;5114343;28;20376;-73
2021/10/01 14:34:22;;;;;;;0.35;0.35;;;17.50;87.70;;;;;;5096443;28;20114;-74